Time;durP1;ratioP1;P1;durP2;ratioP2;P2;SDS_P1;SDS_P2;PMS_P1;PMS_P2;Temp;Humidity;BMP_temperature;BMP_pressure;BME280_temperature;BME280_humidity;BME280_pressure;Samples;Min_cycle;Max_cycle;Signal;HPM_P1;HPM_P2
2022/10/26 00:01:19;;;;;;;11.50;7.50;;;10.20;99.90;;;;;;5101290;28;20449;-75
2022/10/26 00:03:47;;;;;;;16.40;7.80;;;10.30;99.90;;;;;;5098909;28;20490;-75
2022/10/26 00:06:15;;;;;;;9.63;6.43;;;10.30;99.90;;;;;;5095485;28;20447;-75
2022/10/26 00:08:43;;;;;;;16.33;7.23;;;10.30;99.90;;;;;;5103290;28;20453;-75
2022/10/26 00:11:12;;;;;;;16.90;7.67;;;10.30;99.90;;;;;;5098604;28;20452;-75
2022/10/26 00:13:40;;;;;;;14.53;7.20;;;10.30;99.90;;;;;;5092374;28;20460;-75
2022/10/26 00:16:11;;;;;;;17.03;8.33;;;10.20;99.90;;;;;;5106888;28;21020;-75
2022/10/26 00:18:38;;;;;;;14.73;7.97;;;10.20;99.90;;;;;;5091671;28;20821;-75
2022/10/26 00:21:06;;;;;;;12.87;8.47;;;10.20;99.90;;;;;;5091210;28;20961;-75
2022/10/26 00:23:33;;;;;;;11.43;7.30;;;10.30;99.90;;;;;;5091332;28;21003;-75
2022/10/26 00:26:00;;;;;;;15.63;7.47;;;10.30;99.90;;;;;;5104150;28;20458;-75
2022/10/26 00:28:28;;;;;;;14.23;8.00;;;10.30;99.90;;;;;;5095953;28;20952;-75
2022/10/26 00:30:57;;;;;;;10.87;7.60;;;10.30;99.90;;;;;;5107425;28;20465;-76
2022/10/26 00:33:24;;;;;;;11.73;7.63;;;10.30;99.90;;;;;;5111259;28;21041;-76
2022/10/26 00:35:53;;;;;;;15.80;7.83;;;10.30;99.90;;;;;;5105580;28;20447;-75
2022/10/26 00:38:20;;;;;;;12.60;7.27;;;10.30;99.90;;;;;;5091367;28;20447;-76
2022/10/26 00:40:47;;;;;;;12.60;7.13;;;10.30;99.90;;;;;;5094463;28;20443;-75
2022/10/26 00:43:16;;;;;;;11.53;7.87;;;10.30;99.90;;;;;;5091498;28;20584;-75
2022/10/26 00:45:45;;;;;;;18.83;7.60;;;10.40;99.90;;;;;;5094940;28;20578;-75
2022/10/26 00:48:19;;;;;;;10.80;7.70;;;10.30;99.90;;;;;;5100646;28;20538;-75
2022/10/26 00:50:47;;;;;;;18.23;7.80;;;10.30;99.90;;;;;;5106283;28;20799;-75
2022/10/26 00:53:15;;;;;;;20.77;7.40;;;10.30;99.90;;;;;;5097310;28;20473;-75
2022/10/26 00:55:46;;;;;;;12.20;7.47;;;10.30;99.90;;;;;;5107111;28;20451;-75
2022/10/26 00:58:14;;;;;;;14.67;7.33;;;10.30;99.90;;;;;;5104701;28;20872;-76
2022/10/26 01:00:44;;;;;;;12.17;7.60;;;10.40;99.90;;;;;;5113995;27;21019;-75
2022/10/26 01:03:11;;;;;;;10.87;7.40;;;10.40;99.90;;;;;;5114626;28;20482;-75
2022/10/26 01:05:40;;;;;;;13.30;7.97;;;10.40;99.90;;;;;;5111051;28;20484;-75
2022/10/26 01:08:08;;;;;;;11.23;7.70;;;10.30;99.90;;;;;;5106785;28;20482;-75
2022/10/26 01:10:35;;;;;;;13.30;7.33;;;10.40;99.90;;;;;;5097679;28;20452;-76
2022/10/26 01:13:03;;;;;;;13.97;8.50;;;10.40;99.90;;;;;;5094815;28;20493;-75
2022/10/26 01:15:37;;;;;;;14.33;7.40;;;10.40;99.90;;;;;;5108158;28;20862;-75
2022/10/26 01:18:11;;;;;;;15.83;7.67;;;10.40;99.90;;;;;;5101417;28;20461;-75
2022/10/26 01:21:29;;;;;;;12.87;7.10;;;10.40;99.90;;;;;;5108069;28;20462;-75
2022/10/26 01:24:26;;;;;;;13.50;7.87;;;10.40;99.90;;;;;;5084345;28;20540;-75
2022/10/26 01:27:04;;;;;;;12.97;7.90;;;10.40;99.90;;;;;;5094700;28;20454;-75
2022/10/26 01:30:13;;;;;;;9.90;7.60;;;10.40;99.90;;;;;;5101111;28;20506;-75
2022/10/26 01:32:47;;;;;;;13.60;7.73;;;10.40;99.90;;;;;;5031825;28;20474;-75
2022/10/26 01:35:18;;;;;;;15.30;8.73;;;10.40;99.90;;;;;;5033397;28;20458;-75
2022/10/26 01:37:49;;;;;;;18.20;8.20;;;10.40;99.90;;;;;;5082285;28;21022;-75
2022/10/26 01:40:21;;;;;;;13.50;8.80;;;10.40;99.90;;;;;;5101404;28;20445;-75
2022/10/26 01:42:53;;;;;;;15.87;8.60;;;10.40;99.90;;;;;;5100100;28;20486;-75
2022/10/26 01:45:20;;;;;;;14.40;8.20;;;10.40;99.90;;;;;;5114113;27;20506;-75
2022/10/26 01:47:49;;;;;;;14.93;8.67;;;10.40;99.90;;;;;;5128408;27;20951;-75
2022/10/26 01:50:18;;;;;;;14.93;8.47;;;10.50;99.90;;;;;;5114509;28;20512;-75
2022/10/26 01:52:44;;;;;;;16.70;8.33;;;10.50;99.90;;;;;;5110779;28;20470;-75
2022/10/26 01:55:39;;;;;;;12.53;7.80;;;10.50;99.90;;;;;;5102344;28;20461;-76
2022/10/26 01:58:15;;;;;;;14.70;7.77;;;10.50;99.90;;;;;;5108137;28;20817;-76
2022/10/26 02:00:53;;;;;;;12.43;9.17;;;10.50;99.90;;;;;;5110006;28;20454;-75
2022/10/26 02:03:30;;;;;;;25.80;9.70;;;10.50;99.90;;;;;;5094661;28;20833;-75
2022/10/26 02:06:06;;;;;;;13.20;8.63;;;10.50;99.90;;;;;;5108637;28;20459;-76
2022/10/26 02:08:52;;;;;;;13.57;9.40;;;10.50;99.90;;;;;;5112239;28;20450;-73
2022/10/26 02:11:31;;;;;;;14.23;9.47;;;10.50;99.90;;;;;;5093039;28;20752;-75
2022/10/26 02:14:07;;;;;;;19.27;9.53;;;10.50;99.90;;;;;;5092811;28;20462;-75
2022/10/26 02:16:40;;;;;;;15.70;9.57;;;10.50;99.90;;;;;;5092905;28;20454;-75
2022/10/26 02:19:14;;;;;;;16.97;9.80;;;10.50;99.90;;;;;;5093786;28;20861;-76
2022/10/26 02:21:46;;;;;;;15.20;9.30;;;10.50;99.90;;;;;;5092886;28;20449;-75
2022/10/26 02:24:15;;;;;;;17.40;10.37;;;10.60;99.90;;;;;;5098391;28;20486;-75
2022/10/26 02:26:45;;;;;;;17.50;8.60;;;10.60;99.90;;;;;;5105502;28;20448;-75
2022/10/26 02:29:17;;;;;;;19.93;9.03;;;10.60;99.90;;;;;;5100230;28;20497;-75
2022/10/26 02:31:46;;;;;;;15.83;9.07;;;10.60;99.90;;;;;;5106240;28;20474;-76
2022/10/26 02:34:18;;;;;;;13.97;9.33;;;10.70;99.90;;;;;;5107714;28;20466;-75
2022/10/26 02:36:47;;;;;;;12.50;9.27;;;10.60;99.90;;;;;;5093132;28;20453;-76
2022/10/26 02:39:16;;;;;;;16.90;9.57;;;10.60;99.90;;;;;;5100212;28;20443;-75
2022/10/26 02:41:45;;;;;;;14.60;9.40;;;10.70;99.90;;;;;;5106205;28;20475;-76
2022/10/26 02:44:19;;;;;;;18.40;9.40;;;10.60;99.90;;;;;;5102363;28;20489;-75
2022/10/26 02:46:46;;;;;;;22.60;8.20;;;10.60;99.90;;;;;;5109742;27;20448;-76
2022/10/26 02:49:14;;;;;;;16.20;9.10;;;10.60;99.90;;;;;;5097103;28;20459;-75
2022/10/26 02:51:44;;;;;;;17.43;9.73;;;10.60;99.90;;;;;;5105787;28;20451;-75
2022/10/26 02:54:16;;;;;;;18.27;9.53;;;10.60;99.90;;;;;;5092416;28;20444;-75
2022/10/26 02:56:47;;;;;;;14.73;8.40;;;10.60;99.90;;;;;;5093015;28;20473;-76
2022/10/26 02:59:16;;;;;;;15.43;8.70;;;10.60;99.90;;;;;;5102746;28;20528;-75
2022/10/26 03:01:43;;;;;;;17.57;8.43;;;10.60;99.90;;;;;;5093030;28;20536;-75
2022/10/26 03:04:10;;;;;;;22.47;7.97;;;10.60;99.90;;;;;;5104648;28;20484;-75
2022/10/26 03:06:38;;;;;;;16.30;8.40;;;10.60;99.90;;;;;;5106251;28;20503;-76
2022/10/26 03:09:05;;;;;;;12.37;8.73;;;10.60;99.90;;;;;;5103713;28;20447;-75
2022/10/26 03:11:31;;;;;;;14.33;8.53;;;10.60;99.90;;;;;;5095283;28;20509;-75
2022/10/26 03:13:58;;;;;;;12.90;8.60;;;10.60;99.90;;;;;;5092617;28;20869;-75
2022/10/26 03:16:25;;;;;;;22.00;8.73;;;10.60;99.90;;;;;;5092614;28;20443;-76
2022/10/26 03:18:52;;;;;;;12.47;8.63;;;10.60;99.90;;;;;;5091917;28;20456;-75
2022/10/26 03:21:18;;;;;;;20.10;8.63;;;10.60;99.90;;;;;;5097960;28;20455;-76
2022/10/26 03:23:46;;;;;;;14.23;8.80;;;10.60;99.90;;;;;;5108631;28;20559;-76
2022/10/26 03:26:13;;;;;;;17.33;8.53;;;10.60;99.90;;;;;;5106681;28;20545;-75
2022/10/26 03:28:40;;;;;;;13.33;9.00;;;10.60;99.90;;;;;;5112523;28;20458;-76
2022/10/26 03:31:07;;;;;;;14.30;8.60;;;10.60;99.90;;;;;;5103032;28;20460;-76
2022/10/26 03:33:33;;;;;;;17.27;9.13;;;10.70;99.90;;;;;;5096520;28;20467;-76
2022/10/26 03:36:00;;;;;;;15.03;8.90;;;10.70;99.90;;;;;;5110317;28;20484;-76
2022/10/26 03:38:27;;;;;;;15.03;9.20;;;10.70;99.90;;;;;;5112645;28;20450;-75
2022/10/26 03:40:55;;;;;;;12.50;9.03;;;10.70;99.90;;;;;;5109171;28;20450;-75
2022/10/26 03:43:21;;;;;;;15.67;8.70;;;10.70;99.90;;;;;;5103979;28;20536;-76
2022/10/26 03:45:48;;;;;;;16.47;8.73;;;10.70;99.90;;;;;;5102503;28;20454;-76
2022/10/26 03:48:15;;;;;;;19.93;9.40;;;10.70;99.90;;;;;;5111238;28;20466;-75
2022/10/26 03:50:41;;;;;;;17.40;9.90;;;10.70;99.90;;;;;;5100965;28;20452;-75
2022/10/26 03:53:08;;;;;;;22.77;9.63;;;10.70;99.90;;;;;;5107279;28;20493;-75
2022/10/26 03:55:35;;;;;;;13.87;8.87;;;10.70;99.90;;;;;;5100076;28;20530;-76
2022/10/26 03:58:03;;;;;;;15.27;9.17;;;10.70;99.90;;;;;;5091754;28;20455;-75
2022/10/26 04:00:30;;;;;;;14.53;10.20;;;10.70;99.90;;;;;;5094325;28;20452;-75
2022/10/26 04:02:58;;;;;;;19.63;9.13;;;10.70;99.90;;;;;;5108924;28;20511;-75
2022/10/26 04:05:26;;;;;;;18.07;9.40;;;10.70;99.90;;;;;;5105787;28;20467;-75
2022/10/26 04:07:53;;;;;;;14.50;10.07;;;10.80;99.90;;;;;;5098590;28;20500;-75
2022/10/26 04:10:20;;;;;;;23.00;10.73;;;10.80;99.90;;;;;;5096581;28;20917;-75
2022/10/26 04:12:47;;;;;;;22.40;10.43;;;10.80;99.90;;;;;;5110200;28;20480;-75
2022/10/26 04:15:15;;;;;;;15.40;10.10;;;10.80;99.90;;;;;;5097437;28;20447;-76
2022/10/26 04:17:42;;;;;;;17.03;10.07;;;10.80;99.90;;;;;;5091564;28;20454;-76
2022/10/26 04:20:10;;;;;;;19.97;10.57;;;10.80;99.90;;;;;;5092667;28;20501;-76
2022/10/26 04:22:37;;;;;;;17.23;10.30;;;10.80;99.90;;;;;;5104867;28;20474;-75
2022/10/26 04:25:04;;;;;;;22.50;10.60;;;10.70;99.90;;;;;;5095358;28;20487;-75
2022/10/26 04:27:31;;;;;;;33.47;10.90;;;10.70;99.90;;;;;;5091287;28;20486;-74
2022/10/26 04:29:58;;;;;;;18.60;11.07;;;10.70;99.90;;;;;;5094935;28;20461;-74
2022/10/26 04:32:26;;;;;;;23.20;11.00;;;10.70;99.90;;;;;;5112660;28;20830;-75
2022/10/26 04:34:53;;;;;;;16.33;10.20;;;10.70;99.90;;;;;;5104173;28;20470;-74
2022/10/26 04:37:19;;;;;;;16.43;10.50;;;10.80;99.90;;;;;;5095625;28;20459;-75
2022/10/26 04:39:46;;;;;;;15.20;9.97;;;10.80;99.90;;;;;;5097190;28;20516;-74
2022/10/26 04:42:13;;;;;;;15.83;10.77;;;10.70;99.90;;;;;;5114040;28;20476;-75
2022/10/26 04:44:39;;;;;;;29.83;11.50;;;10.80;99.90;;;;;;5115448;28;20490;-75
2022/10/26 04:47:06;;;;;;;17.47;10.67;;;10.80;99.90;;;;;;5096082;28;20508;-74
2022/10/26 04:49:34;;;;;;;15.80;11.20;;;10.80;99.90;;;;;;5105135;28;20510;-74
2022/10/26 04:52:00;;;;;;;21.40;11.00;;;10.80;99.90;;;;;;5109109;28;20478;-75
2022/10/26 04:54:27;;;;;;;15.40;10.13;;;10.70;99.90;;;;;;5104318;27;20450;-76
2022/10/26 04:56:54;;;;;;;19.23;10.60;;;10.80;99.90;;;;;;5096079;28;20447;-76
2022/10/26 04:59:21;;;;;;;28.77;12.13;;;10.80;99.90;;;;;;5100288;28;20460;-75
2022/10/26 05:01:47;;;;;;;39.63;11.80;;;10.80;99.90;;;;;;5102590;28;20500;-75
2022/10/26 05:04:14;;;;;;;17.60;10.93;;;10.80;99.90;;;;;;5095504;28;20510;-76
2022/10/26 05:06:42;;;;;;;15.70;9.90;;;10.80;99.90;;;;;;5092691;28;20447;-75
2022/10/26 05:09:09;;;;;;;18.40;10.70;;;10.80;99.90;;;;;;5091906;28;20516;-75
2022/10/26 05:11:35;;;;;;;17.60;9.97;;;10.80;99.90;;;;;;5107073;28;20452;-75
2022/10/26 05:14:02;;;;;;;20.20;11.80;;;10.80;99.90;;;;;;5115319;28;20444;-75
2022/10/26 05:16:29;;;;;;;15.90;10.47;;;10.70;99.90;;;;;;5115028;28;20451;-75
2022/10/26 05:18:56;;;;;;;19.40;9.80;;;10.70;99.90;;;;;;5115016;28;20963;-75
2022/10/26 05:21:22;;;;;;;23.87;9.80;;;10.60;99.90;;;;;;5114869;27;20451;-75
2022/10/26 05:23:54;;;;;;;20.77;11.20;;;10.60;99.90;;;;;;5115033;28;20484;-75
2022/10/26 05:26:21;;;;;;;22.77;11.83;;;10.60;99.90;;;;;;5115023;28;20525;-75
2022/10/26 05:28:48;;;;;;;15.80;10.17;;;10.60;99.90;;;;;;5114776;28;20970;-75
2022/10/26 05:31:14;;;;;;;14.33;10.27;;;10.60;99.90;;;;;;5114359;28;20477;-75
2022/10/26 05:33:41;;;;;;;16.87;10.50;;;10.70;99.90;;;;;;5114868;28;20461;-75
2022/10/26 05:36:08;;;;;;;25.63;10.10;;;10.70;99.90;;;;;;5114678;27;21013;-75
2022/10/26 05:38:35;;;;;;;19.50;10.00;;;10.70;99.90;;;;;;5114669;28;20998;-75
2022/10/26 05:41:03;;;;;;;20.83;10.07;;;10.70;99.90;;;;;;5114171;28;20851;-75
2022/10/26 05:43:29;;;;;;;31.23;10.40;;;10.70;99.90;;;;;;5114282;28;20816;-75
2022/10/26 05:45:56;;;;;;;17.07;10.57;;;10.70;99.90;;;;;;5124292;27;20997;-76
2022/10/26 05:48:22;;;;;;;18.20;9.63;;;10.70;99.90;;;;;;5135269;27;20861;-75
2022/10/26 05:50:49;;;;;;;17.47;9.50;;;10.70;99.90;;;;;;5134910;27;20460;-75
2022/10/26 05:53:16;;;;;;;23.87;10.33;;;10.70;99.90;;;;;;5134862;27;20974;-75
2022/10/26 05:55:43;;;;;;;23.40;10.90;;;10.70;99.90;;;;;;5134876;27;20869;-76
2022/10/26 05:58:14;;;;;;;15.43;10.20;;;10.70;99.90;;;;;;5134713;27;20450;-75
2022/10/26 06:00:50;;;;;;;20.90;10.10;;;10.70;99.90;;;;;;5134680;27;20479;-76
2022/10/26 06:03:28;;;;;;;19.90;9.50;;;10.70;99.90;;;;;;5134688;27;20469;-77
2022/10/26 06:05:57;;;;;;;21.43;9.20;;;10.70;99.90;;;;;;5134881;27;20442;-76
2022/10/26 06:08:25;;;;;;;24.83;9.53;;;10.70;99.90;;;;;;5134652;27;20448;-77
2022/10/26 06:10:53;;;;;;;21.10;10.37;;;10.80;99.90;;;;;;5126717;27;20505;-77
2022/10/26 06:13:22;;;;;;;15.17;9.77;;;10.80;99.90;;;;;;5114083;28;20549;-77
2022/10/26 06:16:02;;;;;;;16.47;10.80;;;10.80;99.90;;;;;;5114075;28;20439;-76
2022/10/26 06:18:39;;;;;;;19.37;10.27;;;10.80;99.90;;;;;;5114070;28;20457;-77
2022/10/26 06:21:22;;;;;;;15.20;9.60;;;10.80;99.90;;;;;;5113515;28;20461;-77
2022/10/26 06:23:54;;;;;;;32.33;10.67;;;10.90;99.90;;;;;;5113933;27;20466;-77
2022/10/26 06:26:30;;;;;;;16.50;9.50;;;10.90;99.90;;;;;;5113994;28;20450;-77
2022/10/26 06:29:10;;;;;;;20.03;9.40;;;10.90;99.90;;;;;;5113836;28;20443;-77
2022/10/26 06:31:37;;;;;;;19.40;10.67;;;10.90;99.90;;;;;;5113174;28;20523;-77
2022/10/26 06:34:04;;;;;;;22.53;9.73;;;10.90;99.90;;;;;;5113875;28;20866;-77
2022/10/26 06:36:32;;;;;;;14.40;9.67;;;10.90;99.90;;;;;;5113568;28;20964;-77
2022/10/26 06:39:02;;;;;;;17.70;10.27;;;10.90;99.90;;;;;;5113495;28;20809;-77
2022/10/26 06:41:32;;;;;;;15.40;9.50;;;10.90;99.90;;;;;;5113325;28;20463;-77
2022/10/26 06:44:01;;;;;;;21.17;9.43;;;10.90;99.90;;;;;;5113157;28;20572;-77
2022/10/26 06:46:37;;;;;;;19.43;9.17;;;10.90;99.90;;;;;;5128093;27;20463;-77
2022/10/26 06:49:12;;;;;;;13.57;9.37;;;10.90;99.90;;;;;;5133923;27;20445;-77
2022/10/26 06:51:45;;;;;;;14.73;8.90;;;10.90;99.90;;;;;;5133570;27;20964;-77
2022/10/26 06:54:18;;;;;;;15.03;8.77;;;10.90;99.90;;;;;;5132686;27;20437;-77
2022/10/26 06:56:46;;;;;;;11.47;8.43;;;10.90;99.90;;;;;;5133996;27;20454;-77
2022/10/26 06:59:21;;;;;;;19.73;8.50;;;10.90;99.90;;;;;;5133791;27;20450;-75
2022/10/26 07:01:48;;;;;;;13.77;8.73;;;11.00;99.90;;;;;;5133468;27;20463;-75
2022/10/26 07:04:14;;;;;;;21.00;9.00;;;11.00;99.90;;;;;;5133602;27;20485;-75
2022/10/26 07:06:42;;;;;;;14.60;9.30;;;11.10;99.90;;;;;;5133343;27;20862;-75
2022/10/26 07:09:08;;;;;;;15.73;8.13;;;11.10;99.90;;;;;;5133689;27;20451;-76
2022/10/26 07:11:35;;;;;;;18.17;9.70;;;11.10;99.90;;;;;;5119693;27;20451;-75
2022/10/26 07:14:01;;;;;;;18.13;8.97;;;11.10;99.90;;;;;;5112787;28;20943;-76
2022/10/26 07:16:29;;;;;;;16.53;8.37;;;11.10;99.90;;;;;;5112694;28;20839;-75
2022/10/26 07:18:56;;;;;;;18.37;9.10;;;11.10;99.90;;;;;;5112650;28;20457;-75
2022/10/26 07:21:23;;;;;;;13.47;8.47;;;11.20;99.90;;;;;;5112736;28;20582;-76
2022/10/26 07:23:51;;;;;;;15.60;9.70;;;11.20;99.90;;;;;;5112678;28;20444;-75
2022/10/26 07:26:18;;;;;;;16.10;8.90;;;11.20;99.90;;;;;;5112736;28;20461;-76
2022/10/26 07:28:47;;;;;;;15.27;7.83;;;11.30;99.90;;;;;;5112641;28;20449;-75
2022/10/26 07:31:14;;;;;;;14.43;8.53;;;11.30;99.90;;;;;;5112199;28;20466;-76
2022/10/26 07:33:43;;;;;;;19.23;8.80;;;11.30;99.90;;;;;;5112712;28;20526;-75
2022/10/26 07:36:10;;;;;;;17.27;9.23;;;11.30;99.90;;;;;;5112360;28;20539;-75
2022/10/26 07:38:37;;;;;;;20.37;9.30;;;11.30;99.90;;;;;;5112551;28;20539;-75
2022/10/26 07:41:04;;;;;;;15.40;8.90;;;11.30;99.90;;;;;;5112213;28;20872;-75
2022/10/26 07:43:31;;;;;;;22.93;9.10;;;11.40;99.90;;;;;;5112125;28;20985;-75
2022/10/26 07:45:58;;;;;;;15.20;9.23;;;11.40;99.90;;;;;;5122488;27;20612;-75
2022/10/26 07:48:24;;;;;;;17.97;8.60;;;11.50;99.90;;;;;;5132526;27;20441;-75
2022/10/26 07:50:52;;;;;;;13.60;8.10;;;11.60;99.90;;;;;;5132662;27;20453;-75
2022/10/26 07:53:19;;;;;;;14.47;7.27;;;11.60;99.90;;;;;;5132811;27;20465;-74
2022/10/26 07:55:53;;;;;;;18.90;7.90;;;11.70;99.90;;;;;;5132512;27;20442;-74
2022/10/26 07:58:22;;;;;;;9.30;7.57;;;11.70;99.90;;;;;;5132696;27;20447;-74
2022/10/26 08:00:49;;;;;;;14.20;8.23;;;11.70;99.90;;;;;;5132158;27;20452;-74
2022/10/26 08:03:15;;;;;;;19.77;7.90;;;11.80;99.90;;;;;;5132644;27;20521;-74
2022/10/26 08:05:42;;;;;;;13.90;7.70;;;11.80;99.90;;;;;;5132397;27;20492;-74
2022/10/26 08:08:10;;;;;;;11.47;8.03;;;11.90;99.90;;;;;;5132703;27;20456;-74
2022/10/26 08:10:36;;;;;;;26.73;8.00;;;12.10;99.90;;;;;;5127095;27;20463;-74
2022/10/26 08:13:03;;;;;;;14.60;7.33;;;12.20;99.90;;;;;;5111749;28;20532;-74
2022/10/26 08:15:30;;;;;;;11.93;7.03;;;12.30;99.90;;;;;;5111838;28;20917;-74
2022/10/26 08:17:56;;;;;;;8.97;7.13;;;12.40;99.90;;;;;;5112061;28;20454;-74
2022/10/26 08:20:23;;;;;;;8.63;6.13;;;12.50;99.90;;;;;;5111964;28;20457;-74
2022/10/26 08:22:51;;;;;;;10.53;6.30;;;12.60;99.90;;;;;;5111836;28;20476;-74
2022/10/26 08:25:19;;;;;;;15.17;6.77;;;12.60;99.90;;;;;;5111680;28;20534;-74
2022/10/26 08:27:46;;;;;;;9.37;5.87;;;12.70;99.90;;;;;;5111624;28;20442;-74
2022/10/26 08:30:13;;;;;;;9.87;5.47;;;12.70;99.90;;;;;;5111815;28;20461;-74
2022/10/26 08:32:41;;;;;;;20.27;5.37;;;12.80;99.90;;;;;;5111548;28;20983;-75
2022/10/26 08:35:08;;;;;;;15.40;6.30;;;12.80;99.90;;;;;;5111859;28;20444;-75
2022/10/26 08:37:35;;;;;;;9.27;5.37;;;12.80;99.90;;;;;;5111875;28;20517;-74
2022/10/26 08:40:02;;;;;;;10.57;5.97;;;12.80;99.90;;;;;;5111683;28;20876;-74
2022/10/26 08:42:37;;;;;;;11.43;6.20;;;12.70;99.90;;;;;;5111106;28;20484;-74
2022/10/26 08:45:10;;;;;;;10.57;5.60;;;12.70;99.90;;;;;;5114362;28;20475;-75
2022/10/26 08:47:43;;;;;;;11.43;6.60;;;12.70;99.90;;;;;;5132182;27;20503;-74
2022/10/26 08:50:14;;;;;;;8.50;6.17;;;12.70;99.90;;;;;;5132140;27;20452;-75
2022/10/26 08:52:46;;;;;;;15.57;6.93;;;12.80;99.90;;;;;;5131814;27;20475;-75
2022/10/26 08:55:17;;;;;;;10.03;6.67;;;12.90;99.90;;;;;;5132113;27;20440;-75
2022/10/26 08:57:48;;;;;;;17.80;6.73;;;12.90;99.90;;;;;;5132138;27;20448;-74
2022/10/26 09:00:19;;;;;;;14.50;8.00;;;12.80;99.90;;;;;;5131904;27;20459;-75
2022/10/26 09:02:49;;;;;;;10.43;6.57;;;12.80;99.90;;;;;;5131820;27;20989;-75
2022/10/26 09:05:18;;;;;;;10.60;7.20;;;12.90;99.90;;;;;;5132261;27;20484;-75
2022/10/26 09:07:54;;;;;;;16.80;7.87;;;13.10;99.90;;;;;;5132115;27;20509;-75
2022/10/26 09:10:39;;;;;;;14.77;8.13;;;13.10;99.90;;;;;;5128980;27;20836;-75
2022/10/26 09:13:22;;;;;;;13.60;7.53;;;13.30;99.90;;;;;;5111316;28;20450;-75
2022/10/26 09:15:59;;;;;;;15.03;7.40;;;13.80;99.90;;;;;;5111433;28;20960;-75
2022/10/26 09:18:40;;;;;;;12.90;6.53;;;13.90;99.90;;;;;;5114977;28;20449;-76
2022/10/26 09:21:30;;;;;;;11.53;6.60;;;13.90;99.90;;;;;;5114876;28;20449;-75
2022/10/26 09:24:02;;;;;;;12.77;7.03;;;14.10;99.90;;;;;;5115220;28;20454;-75
2022/10/26 09:26:32;;;;;;;11.53;6.53;;;14.40;99.90;;;;;;5115008;28;20490;-75
2022/10/26 09:29:04;;;;;;;11.70;6.40;;;14.90;99.90;;;;;;5115015;28;20530;-75
2022/10/26 09:31:35;;;;;;;23.43;6.50;;;15.00;99.90;;;;;;5114395;28;20432;-75
2022/10/26 09:34:04;;;;;;;16.67;6.47;;;14.80;99.90;;;;;;5115060;28;20814;-75
2022/10/26 09:36:31;;;;;;;12.53;7.30;;;14.60;99.90;;;;;;5114904;27;20439;-75
2022/10/26 09:39:02;;;;;;;16.43;6.70;;;14.50;99.90;;;;;;5114945;27;20868;-76
2022/10/26 09:41:37;;;;;;;12.20;6.87;;;14.30;99.90;;;;;;5114471;28;20458;-75
2022/10/26 09:44:11;;;;;;;13.40;7.63;;;14.10;99.90;;;;;;5114528;28;20449;-75
2022/10/26 09:46:55;;;;;;;16.47;7.57;;;14.00;99.90;;;;;;5130394;27;20853;-75
2022/10/26 09:49:29;;;;;;;14.87;6.90;;;14.00;99.90;;;;;;5135211;27;20448;-75
2022/10/26 09:51:56;;;;;;;16.77;6.73;;;14.00;99.90;;;;;;5134778;27;20477;-75
2022/10/26 09:54:22;;;;;;;18.77;8.67;;;14.00;99.90;;;;;;5134554;27;20453;-75
2022/10/26 09:56:53;;;;;;;14.60;7.53;;;14.10;99.90;;;;;;5135247;27;20444;-75
2022/10/26 09:59:23;;;;;;;10.53;6.50;;;14.60;99.90;;;;;;5134954;27;20454;-75
2022/10/26 10:01:50;;;;;;;12.80;6.60;;;15.20;99.90;;;;;;5134531;27;20469;-75
2022/10/26 10:04:22;;;;;;;8.33;6.20;;;15.60;99.90;;;;;;5134790;27;20489;-75
2022/10/26 10:06:51;;;;;;;12.30;6.37;;;16.00;99.90;;;;;;5134556;27;20512;-75
2022/10/26 10:09:19;;;;;;;12.97;5.87;;;16.30;99.90;;;;;;5134828;27;20514;-75
2022/10/26 10:11:53;;;;;;;9.60;5.43;;;16.60;99.90;;;;;;5119319;27;20437;-75
2022/10/26 10:14:23;;;;;;;8.33;5.87;;;16.70;99.90;;;;;;5114207;28;20443;-75
2022/10/26 10:16:53;;;;;;;16.70;6.00;;;16.90;99.90;;;;;;5113992;28;20414;-75
2022/10/26 10:19:25;;;;;;;11.57;5.77;;;17.10;99.90;;;;;;5114071;28;20429;-76
2022/10/26 10:21:55;;;;;;;9.90;6.03;;;17.20;99.90;;;;;;5113748;28;20478;-75
2022/10/26 10:24:25;;;;;;;10.13;5.97;;;17.30;99.90;;;;;;5114034;28;20507;-75
2022/10/26 10:27:03;;;;;;;15.77;5.37;;;17.60;99.90;;;;;;5114000;27;20812;-75
2022/10/26 10:29:33;;;;;;;10.43;5.20;;;17.60;99.90;;;;;;5112349;28;20446;-75
2022/10/26 10:32:01;;;;;;;12.93;4.77;;;17.70;99.90;;;;;;5113568;28;20474;-75
2022/10/26 10:34:30;;;;;;;11.60;5.03;;;17.90;99.90;;;;;;5113626;28;20432;-75
2022/10/26 10:36:58;;;;;;;12.93;5.60;;;18.10;99.90;;;;;;5113638;28;20428;-75
2022/10/26 10:39:38;;;;;;;12.17;5.60;;;18.20;99.90;;;;;;5113542;28;20503;-75
2022/10/26 10:42:13;;;;;;;8.30;4.83;;;18.10;99.90;;;;;;5113036;28;20490;-75
2022/10/26 10:44:44;;;;;;;11.90;5.87;;;18.00;99.90;;;;;;5113420;28;20935;-75
2022/10/26 10:47:23;;;;;;;10.67;6.37;;;17.60;99.90;;;;;;5113471;28;20452;-75
2022/10/26 10:49:53;;;;;;;16.03;6.90;;;17.50;99.90;;;;;;5113396;28;20455;-75
2022/10/26 10:52:24;;;;;;;13.27;6.63;;;17.30;99.90;;;;;;5112871;28;20448;-75
2022/10/26 10:54:59;;;;;;;13.60;6.33;;;17.40;99.90;;;;;;5113008;28;20450;-75
2022/10/26 10:57:32;;;;;;;9.13;6.13;;;17.60;99.90;;;;;;5113200;28;20937;-75
2022/10/26 11:00:03;;;;;;;11.80;6.20;;;17.70;99.90;;;;;;5113094;28;20461;-75
2022/10/26 11:03:02;;;;;;;14.57;6.33;;;17.70;99.90;;;;;;5112689;28;20448;-75
2022/10/26 11:05:39;;;;;;;15.17;7.20;;;17.70;99.90;;;;;;5112857;28;21055;-75
2022/10/26 11:08:11;;;;;;;11.10;6.33;;;17.60;99.90;;;;;;5113047;28;20420;-75
2022/10/26 11:10:40;;;;;;;9.93;6.90;;;17.50;99.90;;;;;;5112643;28;20425;-75
2022/10/26 11:13:15;;;;;;;10.33;6.67;;;17.30;99.90;;;;;;5112701;28;21018;-75
2022/10/26 11:15:45;;;;;;;12.73;6.17;;;17.30;99.90;;;;;;5113074;27;20437;-76
2022/10/26 11:18:16;;;;;;;13.13;6.43;;;17.20;99.90;;;;;;5112847;28;20529;-75
2022/10/26 11:20:49;;;;;;;16.90;6.70;;;17.20;99.90;;;;;;5112591;28;20421;-75
2022/10/26 11:23:20;;;;;;;13.23;7.57;;;17.00;99.90;;;;;;5112474;28;20490;-75
2022/10/26 11:25:54;;;;;;;11.23;6.17;;;17.10;99.90;;;;;;5112818;28;20554;-75
2022/10/26 11:28:31;;;;;;;9.53;6.00;;;17.10;99.90;;;;;;5112585;28;20925;-75
2022/10/26 11:31:05;;;;;;;10.53;5.60;;;17.20;99.90;;;;;;5112392;28;20815;-75
2022/10/26 11:33:39;;;;;;;16.90;5.80;;;17.40;99.90;;;;;;5112417;28;20502;-75
2022/10/26 11:36:09;;;;;;;15.73;5.50;;;17.70;99.90;;;;;;5112684;28;20441;-75
2022/10/26 11:38:42;;;;;;;12.90;5.40;;;18.10;99.90;;;;;;5112436;28;20944;-75
2022/10/26 11:41:18;;;;;;;10.40;4.93;;;18.40;99.90;;;;;;5111907;28;20429;-75
2022/10/26 11:43:47;;;;;;;10.83;5.30;;;18.80;99.90;;;;;;5112318;28;20458;-75
2022/10/26 11:46:19;;;;;;;12.53;5.13;;;18.90;99.90;;;;;;5124524;27;20530;-75
2022/10/26 11:48:54;;;;;;;10.60;5.60;;;19.20;99.90;;;;;;5133076;27;20428;-75
2022/10/26 11:51:35;;;;;;;18.13;5.30;;;19.50;99.90;;;;;;5132621;27;20781;-75
2022/10/26 11:54:09;;;;;;;8.33;4.30;;;19.70;99.90;;;;;;5132532;27;20446;-75
2022/10/26 11:56:41;;;;;;;7.60;4.03;;;19.80;99.90;;;;;;5132993;27;20453;-75
2022/10/26 11:59:14;;;;;;;7.00;4.37;;;19.70;99.90;;;;;;5132899;27;20449;-75
2022/10/26 12:01:42;;;;;;;5.07;4.10;;;19.70;99.90;;;;;;5132599;27;20449;-76
2022/10/26 12:04:10;;;;;;;7.93;5.10;;;19.60;99.90;;;;;;5132584;27;20857;-75
2022/10/26 12:06:37;;;;;;;8.43;4.80;;;19.60;99.90;;;;;;5132280;27;21029;-75
2022/10/26 12:09:08;;;;;;;7.53;4.33;;;19.60;99.90;;;;;;5132666;27;20450;-75
2022/10/26 12:11:41;;;;;;;10.43;4.47;;;19.50;99.90;;;;;;5118930;27;20472;-75
2022/10/26 12:14:18;;;;;;;9.43;3.50;;;19.50;99.90;;;;;;5111993;28;20799;-75
2022/10/26 12:16:53;;;;;;;10.27;4.30;;;19.40;99.90;;;;;;5112015;28;20836;-75
2022/10/26 12:19:26;;;;;;;9.40;4.67;;;19.30;99.90;;;;;;5111825;28;20421;-75
2022/10/26 12:21:53;;;;;;;7.30;4.43;;;19.10;99.90;;;;;;5111719;28;21012;-75
2022/10/26 12:24:29;;;;;;;13.10;5.00;;;18.90;99.90;;;;;;5111938;28;20627;-75
2022/10/26 12:26:57;;;;;;;12.20;4.90;;;18.80;99.90;;;;;;5111698;28;20453;-75
2022/10/26 12:29:35;;;;;;;6.93;4.93;;;18.80;99.90;;;;;;5111712;28;20439;-75
2022/10/26 12:32:04;;;;;;;5.80;4.53;;;18.80;99.90;;;;;;5111476;28;21110;-75
2022/10/26 12:35:03;;;;;;;18.87;5.03;;;19.10;99.90;;;;;;5111817;28;20446;-75
2022/10/26 12:37:37;;;;;;;11.93;4.80;;;19.50;99.90;;;;;;5111702;28;20450;-75
2022/10/26 12:40:36;;;;;;;8.23;4.07;;;20.00;99.90;;;;;;5111621;28;20456;-75
2022/10/26 12:43:34;;;;;;;12.00;4.90;;;20.60;99.90;;;;;;5111756;28;20458;-76
2022/10/26 12:46:41;;;;;;;7.70;3.87;;;21.10;99.90;;;;;;5122304;28;20473;-75
2022/10/26 12:49:56;;;;;;;5.67;3.80;;;21.10;99.90;;;;;;5132395;27;20485;-75
2022/10/26 12:52:47;;;;;;;7.90;3.30;;;20.80;99.90;;;;;;5133558;27;20461;-75
2022/10/26 12:55:34;;;;;;;6.03;3.70;;;20.80;99.90;;;;;;5136127;27;20532;-75